NCAR-RAP Real-Time Weather Data

Output produced by METARs form (23 February 2020  02:32 UTC)
found at http://weather.rap.ucar.edu/surface/
 
KCPR 230153Z 23014KT 10SM CLR 00/M07 A2997 RMK AO2 SLP175 T00001072
KCPR 230053Z 21016KT 10SM CLR 01/M06 A2998 RMK AO2 SLP174 T00061061
KCPR 222353Z 23017KT 10SM CLR 03/M07 A2998 RMK AO2 SLP169 60000 T00281067 10039 20006 55004
KCPR 222253Z 22014KT 10SM CLR 03/M06 A2998 RMK AO2 SLP169 T00331056
KCPR 222153Z 23013KT 10SM CLR 03/M06 A2999 RMK AO2 PK WND 21027/2055 SLP171 T00331061
KCPR 222053Z 22020KT 10SM CLR 03/M06 A3000 RMK AO2 PK WND 23036/1959 SLP172 60000 T00331061 57019
KCPR 221953Z 23028G36KT 10SM CLR 03/M07 A3001 RMK AO2 PK WND 23036/1952 SLP176 T00281072
KCPR 221853Z 22015G23KT 10SM CLR 01/M08 A3005 RMK AO2 PK WND 23030/1755 SNE1755 SLP196 P0000 T00111078
KCPR 221753Z 22023G32KT 10SM -SN CLR 01/M09 A3006 RMK AO2 PK WND 22032/1753 SNB52 SLP200 P0000 60000 T00061094 10006 21044 58000
KCPR 221653Z 22015G23KT 10SM CLR M01/M09 A3007 RMK AO2 PK WND 22028/1628 SLP210 T10111094
KCPR 221553Z 21018KT 10SM CLR M02/M11 A3007 RMK AO2 SLP210 T10171106
KCPR 221453Z 21016KT 10SM CLR M04/M11 A3006 RMK AO2 PK WND 22026/1402 SLP209 T10391111 53001
KCPR 221353Z 22016G25KT 10SM CLR M03/M12 A3005 RMK AO2 SLP203 T10331117
KCPR 221253Z 22014KT 10SM CLR M03/M12 A3006 RMK AO2 SLP207 T10331117
KCPR 221153Z 21014KT 10SM CLR M03/M12 A3006 RMK AO2 SLP207 60000 T10331117 11017 21044 55006
KCPR 221053Z AUTO 21020KT 10SM CLR M03/M12 A3005 RMK AO2 PK WND 21028/1049 SLP200 T10331117
KCPR 220953Z AUTO 22017KT 10SM CLR M04/M12 A3006 RMK AO2 SLP202 T10391117
KCPR 220853Z AUTO 22013KT 10SM CLR M03/M12 A3008 RMK AO2 PK WND 23026/0757 SLP206 60000 T10281117 55002
KCPR 220753Z AUTO 22021G26KT 10SM CLR M02/M12 A3007 RMK AO2 PK WND 22027/0748 SLP200 T10171117
KCPR 220653Z AUTO 22015G20KT 10SM CLR M03/M12 A3007 RMK AO2 PK WND 23028/0601 SNB03E15 SLP209 P0000 T10281117 400171078
KCPR 220553Z AUTO 23020G28KT 10SM CLR M02/M12 A3008 RMK AO2 PK WND 24028/0544 SLP216 60000 T10221117 10000 21033 50003
KCPR 220453Z AUTO 26014KT 10SM CLR M03/M11 A3009 RMK AO2 PK WND 21029/0404 SLP221 T10281111
KCPR 220353Z AUTO 22020G28KT 10SM CLR M02/M11 A3007 RMK AO2 PK WND 22031/0301 SLP215 T10171106
KCPR 220253Z 21020KT 10SM CLR M01/M10 A3007 RMK AO2 PK WND 22028/0231 SLP215 60000 T10061100 58009
KCPR 220153Z 22011G16KT 10SM CLR M01/M11 A3009 RMK AO2 SLP225 T10061111
KCPR 220053Z 22019G27KT 10SM CLR M01/M11 A3009 RMK AO2 PK WND 23031/0016 SNB00E06 SLP224 P0000 T10111111
KCPR 212353Z 23020KT 10SM CLR M01/M11 A3010 RMK AO2 PK WND 23030/2303 SNB06E18 SLP232 P0000 60000 T10111111 10017 21022 56013
KCPR 212253Z 23022G29KT 9SM CLR 01/M10 A3012 RMK AO2 PK WND 24030/2237 SNB39E48 SLP233 P0000 T00111100
KCPR 212153Z 22019KT 10SM CLR 01/M09 A3013 RMK AO2 PK WND 21026/2121 SLP236 T00111094
KCPR 212053Z 21021KT 10SM CLR 01/M11 A3015 RMK AO2 PK WND 23033/1956 SLP243 T00111106 58026
KCPR 211953Z 23020G30KT 10SM CLR 01/M10 A3019 RMK AO2 PK WND 23030/1942 SLP253 T00111100
KCPR 211853Z 23017KT 10SM CLR M01/M10 A3023 RMK AO2 PK WND 23034/1821 SLP278 T10111100
KCPR 211753Z 23021G29KT 10SM CLR M02/M12 A3024 RMK AO2 PK WND 22039/1708 SLP285 60000 T10221122 11022 21067 58000
KCPR 211653Z 22027G36KT 10SM CLR M03/M13 A3025 RMK AO2 PK WND 22036/1641 SLP295 T10331133
KCPR 211553Z 21025G35KT 10SM CLR M04/M14 A3025 RMK AO2 PK WND 21038/1456 SLP298 T10441139
KCPR 211453Z 22027G36KT 10SM CLR M05/M15 A3024 RMK AO2 PK WND 21036/1446 SNB01E49 SLP296 P0000 60000 T10501150 55002
KCPR 211353Z 22023G30KT 9SM CLR M06/M16 A3023 RMK AO2 PK WND 21036/1258 SNB1258E49 SLP294 P0000 T10611161
KCPR 211253Z 21023G35KT 10SM CLR M06/M17 A3024 RMK AO2 PK WND 20035/1247 SLP290 T10611167
KCPR 211153Z 21017G26KT 10SM CLR M07/M17 A3025 RMK AO2 PK WND 20026/1148 SLP291 60000 T10671167 11061 21083 56007
KCPR 211053Z AUTO 21017KT 10SM CLR M07/M17 A3025 RMK AO2 PK WND 20027/0954 SLP292 T10671167
KCPR 210953Z AUTO 21020G27KT 10SM CLR M07/M17 A3026 RMK AO2 PK WND 20027/0952 SLP294 T10671172
KCPR 210853Z AUTO 20019G26KT 10SM CLR M07/M17 A3027 RMK AO2 PK WND 21031/0754 SLP300 60000 T10721172 55011
KCPR 210753Z AUTO 21021KT 10SM CLR M06/M18 A3027 RMK AO2 PK WND 21031/0729 SNB34E39 SLP299 P0000 T10611178
KCPR 210653Z AUTO 22015G22KT 10SM CLR M08/M18 A3030 RMK AO2 PK WND 23026/0600 SLP319 T10781183 410441167
KCPR 210553Z AUTO 23019G30KT 10SM CLR M08/M19 A3031 RMK AO2 PK WND 23030/0523 SNB24E34 SLP324 P0000 60000 T10781189 11050 21106 58007
KCPR 210453Z AUTO VRB03KT 10SM CLR M09/M19 A3033 RMK AO2 SLP339 T10941189
KCPR 210353Z 24017KT 10SM CLR M09/M19 A3034 RMK AO2 PK WND 24028/0302 SLP348 T10941189
KCPR 210253Z 24009KT 10SM CLR M09/M18 A3033 RMK AO2 SLP349 T10941183 53002